createdAt,value
2023-05-18T00:01:14.918Z,3.17
2023-05-18T00:03:43.386Z,3.35
2023-05-18T00:06:12.937Z,3.15
2023-05-18T00:08:41.059Z,4.07
2023-05-18T00:11:09.005Z,4.00
2023-05-18T00:13:36.850Z,3.85
2023-05-18T00:16:04.827Z,4.07
2023-05-18T00:18:34.275Z,3.95
2023-05-18T00:21:02.461Z,3.42
2023-05-18T00:23:33.103Z,4.20
2023-05-18T00:26:01.918Z,3.60
2023-05-18T00:28:30.360Z,4.28
2023-05-18T00:30:59.315Z,3.60
2023-05-18T00:33:27.247Z,3.53
2023-05-18T00:35:57.254Z,3.88
2023-05-18T00:38:25.272Z,3.95
2023-05-18T00:40:54.522Z,3.40
2023-05-18T00:43:22.537Z,5.25
2023-05-18T00:45:50.530Z,3.70
2023-05-18T00:48:18.468Z,3.45
2023-05-18T00:50:46.621Z,3.38
2023-05-18T00:53:14.555Z,2.88
2023-05-18T00:55:42.586Z,3.20
2023-05-18T00:58:12.403Z,4.00
2023-05-18T01:00:40.357Z,3.60
2023-05-18T01:03:11.357Z,3.15
2023-05-18T01:05:39.451Z,3.35
2023-05-18T01:08:07.729Z,2.83
2023-05-18T01:10:38.768Z,2.90
2023-05-18T01:13:08.000Z,3.60
2023-05-18T01:15:39.397Z,2.95
2023-05-18T01:18:15.280Z,3.00
2023-05-18T01:20:48.078Z,3.40
2023-05-18T01:23:48.618Z,3.28
2023-05-18T01:26:24.790Z,3.20
2023-05-18T01:28:53.059Z,3.25
2023-05-18T01:31:21.017Z,2.83
2023-05-18T01:33:48.883Z,2.75
2023-05-18T01:36:16.887Z,2.90
2023-05-18T01:38:46.377Z,2.53
2023-05-18T01:41:21.615Z,3.33
2023-05-18T01:43:54.821Z,2.80
2023-05-18T01:46:34.244Z,2.92
2023-05-18T01:49:08.445Z,2.90
2023-05-18T01:51:38.729Z,3.35
2023-05-18T01:54:09.428Z,3.35
2023-05-18T01:56:39.088Z,3.05
2023-05-18T01:59:07.373Z,3.22
2023-05-18T02:01:35.311Z,3.10
2023-05-18T02:04:03.542Z,3.78
2023-05-18T02:06:32.005Z,2.92
2023-05-18T02:08:59.925Z,2.78
2023-05-18T02:11:27.866Z,3.22
2023-05-18T02:13:57.286Z,3.47
2023-05-18T02:16:25.230Z,3.40
2023-05-18T02:18:54.649Z,3.10
2023-05-18T02:21:22.845Z,3.17
2023-05-18T02:23:51.004Z,3.33
2023-05-18T02:26:18.885Z,3.30
2023-05-18T02:28:46.777Z,3.30
2023-05-18T02:31:16.057Z,3.20
2023-05-18T02:33:43.950Z,3.22
2023-05-18T02:36:13.650Z,3.33
2023-05-18T02:38:43.651Z,3.65
2023-05-18T02:41:12.174Z,3.17
2023-05-18T02:43:40.240Z,3.42
2023-05-18T02:46:08.176Z,3.30
2023-05-18T02:48:37.508Z,3.10
2023-05-18T02:51:05.685Z,3.55
2023-05-18T02:53:33.767Z,3.40
2023-05-18T02:56:03.382Z,3.30
2023-05-18T02:58:31.712Z,3.35
2023-05-18T03:01:03.618Z,3.90
2023-05-18T03:03:31.629Z,3.15
2023-05-18T03:06:02.362Z,3.22
2023-05-18T03:08:31.530Z,3.28
2023-05-18T03:10:59.591Z,3.00
2023-05-18T03:13:27.545Z,3.35
2023-05-18T03:15:56.711Z,3.25
2023-05-18T03:18:25.315Z,3.30
2023-05-18T03:20:53.338Z,3.58
2023-05-18T03:23:22.655Z,3.60
2023-05-18T03:25:53.703Z,3.80
2023-05-18T03:28:21.792Z,3.25
2023-05-18T03:30:49.832Z,3.17
2023-05-18T03:33:17.894Z,4.05
2023-05-18T03:35:48.403Z,3.30
2023-05-18T03:38:16.610Z,3.47
2023-05-18T03:40:45.855Z,3.83
2023-05-18T03:43:13.732Z,3.40
2023-05-18T03:45:41.737Z,3.17
2023-05-18T03:48:09.728Z,3.80
2023-05-18T03:50:37.612Z,3.85
2023-05-18T03:53:05.576Z,3.42
2023-05-18T03:55:33.452Z,3.28
2023-05-18T03:58:03.400Z,3.85
2023-05-18T04:00:31.300Z,3.92
2023-05-18T04:02:59.262Z,3.95
2023-05-18T04:05:28.541Z,4.07
2023-05-18T04:07:58.089Z,4.00
2023-05-18T04:10:26.528Z,3.55
2023-05-18T04:12:54.447Z,4.45
2023-05-18T04:15:23.750Z,3.97
2023-05-18T04:17:53.947Z,3.50
2023-05-18T04:20:22.201Z,3.53
2023-05-18T04:22:50.741Z,3.53
2023-05-18T04:25:18.757Z,3.08
2023-05-18T04:27:49.032Z,3.70
2023-05-18T04:30:18.815Z,3.65
2023-05-18T04:32:48.207Z,3.33
2023-05-18T04:35:16.187Z,3.40
2023-05-18T04:37:44.172Z,3.72
2023-05-18T04:40:14.083Z,3.25
2023-05-18T04:42:45.635Z,3.70
2023-05-18T04:45:15.891Z,3.50
2023-05-18T04:47:46.438Z,3.72
2023-05-18T04:50:17.122Z,3.50
2023-05-18T04:52:48.680Z,3.35
2023-05-18T04:55:22.999Z,3.38
2023-05-18T04:57:53.990Z,3.15
2023-05-18T05:00:22.352Z,3.47
2023-05-18T05:02:50.319Z,3.58
2023-05-18T05:05:19.845Z,3.55
2023-05-18T05:07:47.670Z,3.25
2023-05-18T05:10:15.654Z,3.20
2023-05-18T05:12:43.628Z,3.40
2023-05-18T05:15:11.611Z,4.10
2023-05-18T05:17:39.798Z,3.60
2023-05-18T05:20:08.981Z,4.20
2023-05-18T05:22:38.405Z,3.38
2023-05-18T05:25:07.344Z,3.50
2023-05-18T05:27:35.335Z,3.40
2023-05-18T05:30:03.215Z,3.55
2023-05-18T05:32:31.144Z,3.22
2023-05-18T05:34:59.113Z,3.72
2023-05-18T05:37:27.084Z,3.45
2023-05-18T05:39:56.654Z,3.22
2023-05-18T05:42:25.604Z,3.38
2023-05-18T05:44:53.516Z,3.72
2023-05-18T05:47:21.542Z,3.30
2023-05-18T05:49:49.551Z,3.80
2023-05-18T05:52:17.472Z,3.53
2023-05-18T05:54:45.500Z,3.55
2023-05-18T05:57:14.809Z,3.90
2023-05-18T05:59:42.724Z,3.30
2023-05-18T06:02:11.161Z,3.75
2023-05-18T06:04:39.186Z,3.70
2023-05-18T06:07:07.454Z,3.80
2023-05-18T06:09:35.387Z,3.90
2023-05-18T06:12:03.457Z,3.65
2023-05-18T06:14:32.682Z,3.63
2023-05-18T06:17:00.931Z,3.38
2023-05-18T06:19:28.829Z,4.05
2023-05-18T06:21:56.994Z,3.33
2023-05-18T06:24:25.300Z,3.13
2023-05-18T06:26:55.462Z,3.72
2023-05-18T06:29:23.548Z,3.65
2023-05-18T06:31:52.923Z,3.70
2023-05-18T06:34:20.814Z,3.40
2023-05-18T06:36:48.760Z,3.80
2023-05-18T06:39:16.708Z,3.85
2023-05-18T06:41:45.608Z,3.78
2023-05-18T06:44:13.579Z,3.80
2023-05-18T06:46:41.669Z,3.92
2023-05-18T06:49:11.089Z,4.32
2023-05-18T06:51:39.164Z,4.00
2023-05-18T06:54:07.396Z,4.05
2023-05-18T06:56:35.488Z,4.20
2023-05-18T06:59:03.504Z,3.40
2023-05-18T07:01:31.552Z,4.00
2023-05-18T07:03:59.534Z,4.75
2023-05-18T07:06:29.192Z,3.90
2023-05-18T07:08:57.692Z,3.75
2023-05-18T07:11:28.080Z,4.20
2023-05-18T07:13:57.332Z,3.83
2023-05-18T07:16:25.306Z,4.25
2023-05-18T07:18:53.277Z,4.30
2023-05-18T07:21:21.176Z,3.83
2023-05-18T07:23:52.520Z,4.28
2023-05-18T07:26:22.547Z,4.32
2023-05-18T07:28:51.364Z,4.40
2023-05-18T07:31:21.821Z,4.45
2023-05-18T07:33:49.942Z,4.22
2023-05-18T07:36:18.025Z,4.50
2023-05-18T07:38:45.934Z,3.88
2023-05-18T07:41:15.298Z,4.60
2023-05-18T07:43:43.251Z,4.18
2023-05-18T07:46:11.234Z,4.10
2023-05-18T07:48:40.840Z,4.70
2023-05-18T07:51:09.206Z,4.45
2023-05-18T07:53:37.981Z,4.40
2023-05-18T07:56:07.074Z,4.57
2023-05-18T07:58:36.732Z,4.43
2023-05-18T08:01:04.976Z,4.53
2023-05-18T08:03:33.017Z,3.67
2023-05-18T08:06:01.274Z,4.25
2023-05-18T08:08:29.161Z,4.88
2023-05-18T08:10:57.087Z,5.15
2023-05-18T08:13:24.941Z,4.43
2023-05-18T08:16:09.919Z,4.13
2023-05-18T08:18:39.522Z,4.65
2023-05-18T08:21:08.988Z,5.45
2023-05-18T08:23:37.390Z,4.57
2023-05-18T08:26:05.507Z,5.05
2023-05-18T08:28:33.741Z,5.00
2023-05-18T08:31:03.052Z,4.68
2023-05-18T08:33:32.433Z,4.63
2023-05-18T08:36:00.539Z,4.93
2023-05-18T08:38:28.444Z,4.20
2023-05-18T08:41:05.225Z,4.72
2023-05-18T08:43:34.332Z,4.03
2023-05-18T08:46:07.291Z,4.50
2023-05-18T08:48:35.472Z,4.78
2023-05-18T08:51:04.565Z,4.78
2023-05-18T08:53:34.015Z,4.43
2023-05-18T08:56:02.400Z,4.78
2023-05-18T08:58:36.059Z,4.40
2023-05-18T09:01:06.133Z,4.88
2023-05-18T09:03:34.499Z,4.80
2023-05-18T09:06:03.567Z,4.57
2023-05-18T09:08:33.088Z,4.93
2023-05-18T09:11:03.405Z,4.25
2023-05-18T09:13:31.691Z,4.60
2023-05-18T09:15:59.992Z,5.13
2023-05-18T09:18:29.244Z,4.65
2023-05-18T09:21:00.232Z,5.78
2023-05-18T09:23:28.358Z,4.30
2023-05-18T09:25:56.689Z,3.85
2023-05-18T09:28:29.007Z,3.63
2023-05-18T09:30:57.072Z,4.03
2023-05-18T09:33:25.081Z,3.35
2023-05-18T09:35:54.503Z,4.15
2023-05-18T09:38:23.425Z,3.78
2023-05-18T09:40:51.931Z,3.10
2023-05-18T09:43:20.460Z,2.85
2023-05-18T09:45:50.020Z,2.40
2023-05-18T09:48:18.125Z,2.45
2023-05-18T09:50:46.455Z,2.90
2023-05-18T09:53:16.167Z,2.60
2023-05-18T09:55:49.399Z,2.70
2023-05-18T09:58:17.538Z,3.05
2023-05-18T10:00:51.728Z,2.67
2023-05-18T10:03:21.773Z,2.22
2023-05-18T10:05:50.187Z,3.30
2023-05-18T10:08:19.538Z,3.33
2023-05-18T10:10:49.060Z,3.47
2023-05-18T10:13:19.519Z,3.40
2023-05-18T10:15:57.488Z,3.25
2023-05-18T10:18:26.438Z,3.25
2023-05-18T10:20:56.739Z,2.85
2023-05-18T10:23:28.768Z,3.13
2023-05-18T10:25:56.825Z,3.10
2023-05-18T10:28:32.480Z,2.97
2023-05-18T10:31:01.600Z,3.67
2023-05-18T10:33:39.884Z,3.65
2023-05-18T10:36:08.896Z,3.67
2023-05-18T10:38:39.800Z,3.40
2023-05-18T10:41:09.118Z,3.72
2023-05-18T10:43:37.639Z,4.18
2023-05-18T10:46:07.455Z,3.38
2023-05-18T10:48:40.054Z,3.53
2023-05-18T10:51:08.793Z,3.50
2023-05-18T10:53:38.132Z,3.60
2023-05-18T10:56:07.854Z,3.53
2023-05-18T10:58:36.898Z,3.17
2023-05-18T11:01:07.467Z,3.13
2023-05-18T11:03:35.758Z,3.53
2023-05-18T11:06:08.829Z,3.63
2023-05-18T11:08:44.494Z,3.42
2023-05-18T11:11:12.454Z,3.83
2023-05-18T11:13:45.285Z,3.35
2023-05-18T11:16:13.283Z,3.30
2023-05-18T11:18:45.287Z,3.15
2023-05-18T11:21:24.476Z,3.80
2023-05-18T11:24:21.782Z,3.78
2023-05-18T11:26:50.759Z,3.95
2023-05-18T11:29:24.166Z,3.33
2023-05-18T11:31:53.944Z,3.42
2023-05-18T11:34:39.926Z,3.65
2023-05-18T11:37:10.220Z,3.15
2023-05-18T11:39:51.818Z,3.58
2023-05-18T11:42:33.357Z,3.78
2023-05-18T11:45:07.698Z,3.40
2023-05-18T11:47:36.536Z,3.72
2023-05-18T11:50:08.043Z,3.03
2023-05-18T11:52:46.950Z,3.20
2023-05-18T11:55:17.451Z,3.30
2023-05-18T11:57:46.290Z,2.95
2023-05-18T12:00:15.783Z,3.40
2023-05-18T12:02:45.224Z,3.00
2023-05-18T12:05:16.779Z,3.65
2023-05-18T12:07:47.065Z,3.25
2023-05-18T12:10:20.142Z,3.40
2023-05-18T12:12:50.397Z,3.30
2023-05-18T12:15:23.079Z,4.00
2023-05-18T12:17:52.424Z,3.72
2023-05-18T12:20:21.820Z,4.18
2023-05-18T12:22:52.228Z,3.97
2023-05-18T12:25:23.266Z,4.03
2023-05-18T12:27:52.067Z,3.72
2023-05-18T12:30:21.071Z,4.03
2023-05-18T12:32:50.874Z,3.90
2023-05-18T12:35:19.051Z,4.10
2023-05-18T12:37:47.813Z,4.28
2023-05-18T12:40:16.902Z,4.47
2023-05-18T12:42:54.613Z,4.22
2023-05-18T12:45:24.300Z,4.10
2023-05-18T12:47:54.601Z,4.22
2023-05-18T12:50:23.637Z,4.25
2023-05-18T12:52:51.892Z,4.72
2023-05-18T12:55:21.993Z,4.10
2023-05-18T12:58:01.782Z,4.30
2023-05-18T13:00:33.636Z,4.10
2023-05-18T13:03:07.364Z,4.20
2023-05-18T13:05:35.702Z,4.38
2023-05-18T13:08:03.961Z,4.03
2023-05-18T13:10:32.897Z,4.30
2023-05-18T13:13:03.807Z,4.22
2023-05-18T13:15:34.696Z,3.95
2023-05-18T13:18:04.108Z,3.58
2023-05-18T13:20:35.968Z,4.72
2023-05-18T13:23:05.478Z,4.47
2023-05-18T13:25:33.707Z,4.43
2023-05-18T13:28:03.832Z,3.92
2023-05-18T13:30:32.143Z,4.00
2023-05-18T13:33:00.506Z,3.80
2023-05-18T13:35:28.610Z,3.83
2023-05-18T13:37:56.754Z,4.03
2023-05-18T13:40:25.761Z,3.40
2023-05-18T13:42:54.201Z,4.28
2023-05-18T13:45:23.885Z,4.10
2023-05-18T13:47:53.577Z,4.32
2023-05-18T13:50:23.005Z,3.85
2023-05-18T13:52:51.282Z,4.13
2023-05-18T13:55:19.199Z,4.10
2023-05-18T13:57:47.451Z,3.85
2023-05-18T14:00:17.223Z,4.45
2023-05-18T14:02:47.241Z,4.20
2023-05-18T14:05:16.416Z,3.60
2023-05-18T14:07:45.204Z,3.17
2023-05-18T14:10:14.076Z,4.20
2023-05-18T14:12:43.390Z,4.20
2023-05-18T14:15:13.771Z,3.83
2023-05-18T14:17:42.100Z,3.50
2023-05-18T14:20:12.497Z,3.60
2023-05-18T14:22:41.067Z,3.50
2023-05-18T14:25:09.643Z,4.03
2023-05-18T14:27:37.607Z,3.90
2023-05-18T14:30:06.599Z,4.05
2023-05-18T14:32:34.572Z,4.00
2023-05-18T14:35:02.859Z,3.60
2023-05-18T14:37:32.986Z,4.28
2023-05-18T14:40:01.036Z,3.58
2023-05-18T14:42:29.005Z,3.60
2023-05-18T14:44:56.856Z,3.65
2023-05-18T14:47:24.782Z,3.20
2023-05-18T14:49:52.696Z,2.90
2023-05-18T14:52:21.099Z,3.92
2023-05-18T14:54:50.426Z,4.50
2023-05-18T14:57:18.362Z,3.58
2023-05-18T14:59:46.459Z,3.20
2023-05-18T15:02:14.605Z,3.17
2023-05-18T15:04:42.535Z,3.83
2023-05-18T15:07:10.446Z,3.40
2023-05-18T15:09:38.398Z,3.50
2023-05-18T15:12:08.277Z,3.10
2023-05-18T15:14:36.179Z,3.63
2023-05-18T15:17:04.178Z,3.35
2023-05-18T15:19:32.096Z,4.00
2023-05-18T15:22:00.121Z,3.97
2023-05-18T15:24:28.024Z,3.75
2023-05-18T15:26:56.119Z,4.32
2023-05-18T15:29:27.730Z,3.72
2023-05-18T15:31:56.013Z,3.97
2023-05-18T15:34:23.955Z,3.25
2023-05-18T15:36:53.413Z,3.58
2023-05-18T15:39:21.332Z,3.55
2023-05-18T15:41:49.564Z,3.42
2023-05-18T15:44:17.485Z,3.33
2023-05-18T15:46:46.818Z,4.05
2023-05-18T15:49:14.794Z,3.70
2023-05-18T15:51:42.765Z,3.67
2023-05-18T15:54:10.939Z,3.40
2023-05-18T15:56:38.952Z,3.30
2023-05-18T15:59:09.960Z,3.58
2023-05-18T16:01:37.998Z,3.78
2023-05-18T16:04:07.364Z,3.90
2023-05-18T16:06:36.684Z,3.92
2023-05-18T16:09:04.708Z,3.40
2023-05-18T16:11:32.851Z,3.97
2023-05-18T16:14:00.914Z,3.95
2023-05-18T16:16:29.217Z,3.60
2023-05-18T16:18:57.420Z,3.75
2023-05-18T16:21:26.864Z,4.00
2023-05-18T16:23:54.724Z,3.85
2023-05-18T16:26:22.759Z,3.72
2023-05-18T16:28:50.716Z,3.67
2023-05-18T16:31:18.660Z,3.40
2023-05-18T16:33:46.713Z,3.15
2023-05-18T16:36:14.972Z,3.40
2023-05-18T16:38:44.561Z,3.30
2023-05-18T16:41:12.749Z,3.05
2023-05-18T16:43:40.645Z,2.92
2023-05-18T16:46:08.673Z,3.15
2023-05-18T16:48:36.834Z,3.30
2023-05-18T16:51:06.642Z,3.22
2023-05-18T16:53:37.323Z,3.25
2023-05-18T16:56:07.203Z,3.10
2023-05-18T16:58:35.094Z,3.47
2023-05-18T17:01:04.303Z,3.42
2023-05-18T17:03:38.137Z,3.08
2023-05-18T17:06:08.488Z,3.10
2023-05-18T17:08:36.422Z,2.92
2023-05-18T17:11:04.350Z,3.92
2023-05-18T17:13:33.839Z,3.30
2023-05-18T17:16:02.031Z,3.85
2023-05-18T17:18:29.951Z,3.58
2023-05-18T17:20:57.842Z,3.50
2023-05-18T17:23:25.945Z,3.60
2023-05-18T17:25:58.181Z,3.35
2023-05-18T17:28:34.998Z,3.75
2023-05-18T17:31:22.912Z,3.80
2023-05-18T17:33:50.881Z,3.30
2023-05-18T17:36:18.915Z,3.67
2023-05-18T17:38:47.316Z,3.38
2023-05-18T17:41:15.701Z,3.70
2023-05-18T17:43:44.997Z,3.00
2023-05-18T17:46:13.050Z,3.88
2023-05-18T17:48:41.080Z,3.83
2023-05-18T17:51:09.164Z,3.75
2023-05-18T17:53:41.881Z,3.70
2023-05-18T17:56:10.995Z,3.45
2023-05-18T17:58:39.641Z,4.22
2023-05-18T18:01:12.328Z,3.60
2023-05-18T18:03:40.670Z,3.92
2023-05-18T18:06:09.050Z,3.60
2023-05-18T18:08:38.707Z,3.58
2023-05-18T18:11:09.088Z,3.90
2023-05-18T18:13:37.412Z,3.58
2023-05-18T18:16:05.942Z,3.28
2023-05-18T18:18:37.208Z,3.63
2023-05-18T18:21:08.400Z,3.30
2023-05-18T18:23:36.897Z,3.97
2023-05-18T18:26:07.953Z,3.50
2023-05-18T18:28:36.095Z,3.30
2023-05-18T18:31:04.456Z,3.25
2023-05-18T18:33:32.772Z,3.05
2023-05-18T18:36:03.874Z,3.78
2023-05-18T18:38:33.847Z,3.15
2023-05-18T18:41:04.922Z,3.25
2023-05-18T18:43:35.124Z,3.45
2023-05-18T18:46:03.245Z,3.25
2023-05-18T18:48:31.284Z,3.40
2023-05-18T18:50:59.245Z,3.55
2023-05-18T18:53:28.452Z,3.28
2023-05-18T18:55:57.205Z,3.53
2023-05-18T18:58:25.121Z,3.72
2023-05-18T19:00:53.097Z,3.50
2023-05-18T19:03:21.825Z,3.30
2023-05-18T19:05:50.620Z,3.25
2023-05-18T19:08:18.571Z,3.60
2023-05-18T19:10:47.914Z,3.22
2023-05-18T19:13:15.839Z,3.15
2023-05-18T19:15:43.829Z,3.63
2023-05-18T19:18:26.671Z,3.10
2023-05-18T19:20:59.037Z,3.20
2023-05-18T19:23:27.034Z,3.78
2023-05-18T19:25:59.531Z,3.55
2023-05-18T19:28:27.499Z,3.28
2023-05-18T19:30:56.138Z,3.25
2023-05-18T19:33:24.221Z,3.33
2023-05-18T19:35:52.859Z,3.28
2023-05-18T19:38:20.829Z,3.30
2023-05-18T19:40:48.799Z,3.72
2023-05-18T19:43:18.366Z,3.40
2023-05-18T19:45:46.315Z,3.15
2023-05-18T19:48:14.514Z,3.35
2023-05-18T19:50:42.427Z,2.90
2023-05-18T19:53:10.402Z,2.80
2023-05-18T19:55:38.381Z,2.88
2023-05-18T19:58:06.559Z,3.47
2023-05-18T20:00:38.038Z,2.97
2023-05-18T20:03:08.378Z,3.10
2023-05-18T20:05:36.416Z,3.30
2023-05-18T20:08:07.390Z,3.90
2023-05-18T20:10:37.058Z,4.03
2023-05-18T20:13:05.061Z,3.78
2023-05-18T20:15:38.602Z,3.50
2023-05-18T20:18:10.572Z,3.20
2023-05-18T20:20:38.804Z,3.22
2023-05-18T20:23:07.819Z,3.30
2023-05-18T20:25:36.433Z,3.08
2023-05-18T20:28:08.104Z,2.97
2023-05-18T20:30:36.373Z,3.45
2023-05-18T20:33:06.003Z,2.85
2023-05-18T20:35:37.321Z,3.20
2023-05-18T20:38:05.578Z,3.03
2023-05-18T20:40:33.787Z,2.53
2023-05-18T20:43:02.356Z,2.92
2023-05-18T20:45:31.319Z,3.00
2023-05-18T20:47:59.945Z,3.40
2023-05-18T20:50:28.172Z,3.33
2023-05-18T20:53:00.282Z,3.20
2023-05-18T20:55:29.007Z,3.22
2023-05-18T20:57:56.899Z,3.47
2023-05-18T21:00:25.086Z,3.10
2023-05-18T21:02:53.613Z,3.20
2023-05-18T21:05:23.355Z,3.30
2023-05-18T21:07:51.673Z,2.90
2023-05-18T21:10:20.973Z,2.72
2023-05-18T21:12:48.868Z,3.17
2023-05-18T21:15:17.040Z,3.17
2023-05-18T21:17:45.027Z,3.15
2023-05-18T21:20:13.390Z,3.15
2023-05-18T21:22:43.613Z,3.15
2023-05-18T21:25:11.556Z,2.47
2023-05-18T21:27:41.244Z,3.28
2023-05-18T21:30:10.703Z,3.28
2023-05-18T21:32:38.796Z,2.83
2023-05-18T21:35:07.588Z,3.65
2023-05-18T21:37:35.531Z,2.97
2023-05-18T21:40:03.566Z,3.30
2023-05-18T21:42:32.737Z,3.10
2023-05-18T21:45:02.181Z,3.20
2023-05-18T21:47:30.122Z,2.83
2023-05-18T21:49:58.135Z,3.22
2023-05-18T21:52:26.025Z,3.20
2023-05-18T21:54:53.954Z,3.42
2023-05-18T21:57:21.922Z,3.58
2023-05-18T21:59:49.819Z,3.03
2023-05-18T22:02:19.285Z,3.63
2023-05-18T22:04:47.220Z,3.70
2023-05-18T22:07:16.036Z,3.50
2023-05-18T22:09:46.802Z,3.88
2023-05-18T22:12:14.792Z,3.63
2023-05-18T22:14:42.731Z,3.60
2023-05-18T22:17:10.608Z,4.07
2023-05-18T22:19:42.342Z,4.05
2023-05-18T22:22:13.904Z,3.83
2023-05-18T22:24:48.845Z,4.32
2023-05-18T22:27:16.812Z,4.03
2023-05-18T22:29:44.801Z,4.10
2023-05-18T22:32:12.900Z,4.40
2023-05-18T22:34:42.220Z,4.47
2023-05-18T22:37:10.088Z,4.10
2023-05-18T22:39:38.158Z,4.45
2023-05-18T22:42:06.304Z,4.15
2023-05-18T22:44:34.261Z,4.53
2023-05-18T22:47:02.432Z,4.63
2023-05-18T22:49:31.104Z,4.40
2023-05-18T22:52:00.414Z,5.03
2023-05-18T22:54:28.913Z,4.75
2023-05-18T22:56:56.780Z,4.20
2023-05-18T22:59:25.540Z,4.57
2023-05-18T23:01:54.656Z,4.88
2023-05-18T23:04:22.591Z,5.35
2023-05-18T23:06:51.483Z,4.82
2023-05-18T23:09:21.222Z,5.57
2023-05-18T23:11:51.412Z,5.38
2023-05-18T23:14:19.957Z,5.80
2023-05-18T23:16:49.268Z,5.80
2023-05-18T23:19:18.561Z,5.57
2023-05-18T23:21:47.070Z,6.95
2023-05-18T23:24:16.078Z,6.55
2023-05-18T23:26:45.666Z,7.28
2023-05-18T23:29:13.850Z,6.53
2023-05-18T23:31:41.758Z,6.72
2023-05-18T23:34:10.198Z,7.30
2023-05-18T23:36:42.854Z,6.05
2023-05-18T23:39:11.744Z,6.03
2023-05-18T23:41:40.356Z,6.72
2023-05-18T23:44:10.481Z,6.65
2023-05-18T23:46:39.015Z,6.60
2023-05-18T23:49:07.485Z,6.50
2023-05-18T23:51:37.230Z,6.20
2023-05-18T23:54:07.215Z,5.97
2023-05-18T23:56:35.648Z,6.22
2023-05-18T23:59:03.853Z,6.18
